Time;durP1;ratioP1;P1;durP2;ratioP2;P2;SDS_P1;SDS_P2;PMS_P1;PMS_P2;Temp;Humidity;BMP_temperature;BMP_pressure;BME280_temperature;BME280_humidity;BME280_pressure;Samples;Min_cycle;Max_cycle;Signal;HPM_P1;HPM_P2
2023/01/04 00:01:12;;;;;;;86.17;38.40;;;;;;;2.63;83.87;99852.59;1710953;81;25455;-72
2023/01/04 00:03:39;;;;;;;81.35;36.48;;;;;;;2.64;84.29;99853.39;1735651;81;25686;-71
2023/01/04 00:06:08;;;;;;;91.25;38.40;;;;;;;2.63;83.95;99851.75;1760717;81;25711;-73
2023/01/04 00:08:35;;;;;;;84.42;35.50;;;;;;;2.60;84.00;99851.70;1760511;80;27264;-72
2023/01/04 00:11:18;;;;;;;65.97;31.77;;;;;;;2.62;84.15;99857.69;1760274;81;25655;-72
2023/01/04 00:13:47;;;;;;;69.10;29.85;;;;;;;2.59;84.22;99860.05;1742249;82;25603;-72
2023/01/04 00:16:18;;;;;;;62.45;28.15;;;;;;;2.53;84.66;99856.36;1695012;82;25615;-73
2023/01/04 00:18:44;;;;;;;63.25;30.08;;;;;;;2.58;84.79;99852.97;1718392;82;25485;-72
2023/01/04 00:21:24;;;;;;;61.42;29.67;;;;;;;2.60;84.58;99848.16;1718306;82;27062;-72
2023/01/04 00:23:54;;;;;;;65.37;29.12;;;;;;;2.56;84.33;99857.25;1694959;82;25705;-72
2023/01/04 00:26:28;;;;;;;64.77;30.23;;;;;;;2.53;84.59;99852.84;1694775;82;25486;-72
2023/01/04 00:29:04;;;;;;;92.78;42.83;;;;;;;2.52;84.49;99847.95;1718269;82;25441;-72
2023/01/04 00:31:31;;;;;;;82.60;38.45;;;;;;;2.46;84.39;99846.17;1696326;82;25667;-72
2023/01/04 00:34:00;;;;;;;82.08;38.60;;;;;;;2.43;84.47;99850.17;1718374;82;28372;-72
2023/01/04 00:36:27;;;;;;;75.30;36.13;;;;;;;2.41;84.43;99848.73;1742992;81;25434;-71
2023/01/04 00:39:13;;;;;;;66.22;32.67;;;;;;;2.40;84.38;99851.98;1694701;82;25491;-71
2023/01/04 00:41:49;;;;;;;95.20;41.58;;;;;;;2.28;83.77;99852.45;1743999;81;26927;-73
2023/01/04 00:44:16;;;;;;;86.28;38.83;;;;;;;2.13;83.64;99850.45;1718384;82;25762;-71
2023/01/04 00:46:44;;;;;;;82.53;36.48;;;;;;;2.08;83.75;99842.73;1694714;82;27385;-70
2023/01/04 00:49:11;;;;;;;83.78;44.55;;;;;;;2.06;83.92;99839.42;1743157;81;25667;-70
2023/01/04 00:51:40;;;;;;;75.97;38.50;;;;;;;2.05;84.23;99840.48;1743127;81;25433;-70
2023/01/04 00:54:11;;;;;;;70.37;32.03;;;;;;;2.04;84.42;99834.23;1718505;82;25435;-69
2023/01/04 00:56:37;;;;;;;;;;;;;;;2.02;84.74;99828.77;1721002;82;25434;-69
2023/01/04 00:59:04;;;;;;;38.55;17.98;;;;;;;2.03;85.49;99831.25;1703174;82;27432;-68
2023/01/04 01:01:34;;;;;;;49.63;24.67;;;;;;;2.07;86.24;99831.08;1718016;82;25854;-70
2023/01/04 01:04:03;;;;;;;44.93;23.12;;;;;;;2.10;85.85;99829.27;1718230;82;25702;-69
2023/01/04 01:06:32;;;;;;;56.02;25.75;;;;;;;2.14;85.72;99840.47;1719181;82;25758;-70
2023/01/04 01:09:00;;;;;;;49.27;25.00;;;;;;;2.09;85.11;99841.16;1743201;81;25753;-70
2023/01/04 01:11:28;;;;;;;53.58;25.20;;;;;;;2.07;85.11;99843.25;1695049;81;27916;-70
2023/01/04 01:13:54;;;;;;;55.63;28.02;;;;;;;2.05;84.77;99845.38;1687323;81;25722;-70
2023/01/04 01:16:23;;;;;;;63.92;31.20;;;;;;;2.07;84.95;99851.91;1765642;81;25690;-71
2023/01/04 01:18:49;;;;;;;62.70;29.63;;;;;;;2.09;84.78;99851.13;1716164;81;26729;-70
2023/01/04 01:21:20;;;;;;;61.40;27.93;;;;;;;2.10;84.67;99850.10;1714385;81;25795;-70
2023/01/04 01:23:48;;;;;;;58.00;27.52;;;;;;;2.06;84.38;99853.77;1716259;81;29938;-70
2023/01/04 01:26:18;;;;;;;56.77;27.93;;;;;;;2.02;84.52;99852.59;1740230;81;25495;-70
2023/01/04 01:28:46;;;;;;;55.57;26.93;;;;;;;2.03;84.76;99851.52;1741347;81;25624;-70
2023/01/04 01:31:16;;;;;;;67.53;30.57;;;;;;;1.96;84.07;99854.84;1716529;81;26200;-70
2023/01/04 01:33:44;;;;;;;65.57;31.97;;;;;;;1.81;83.74;99864.15;1770595;81;25723;-70
2023/01/04 01:36:13;;;;;;;71.10;33.48;;;;;;;1.73;84.09;99855.01;1740973;81;28292;-69
2023/01/04 01:38:40;;;;;;;84.55;38.75;;;;;;;1.66;83.83;99860.98;1765727;80;25576;-70
2023/01/04 01:41:07;;;;;;;105.63;44.50;;;;;;;1.55;83.80;99855.28;1715704;81;25638;-68
2023/01/04 01:44:03;;;;;;;93.17;43.00;;;;;;;1.46;83.86;99859.32;1765750;81;25751;-71
2023/01/04 01:46:48;;;;;;;85.42;40.45;;;;;;;1.45;84.41;99858.52;1716124;81;25716;-70
2023/01/04 01:49:20;;;;;;;95.15;44.18;;;;;;;1.47;84.24;99859.10;1770479;81;27436;-70
2023/01/04 01:51:47;;;;;;;100.70;45.92;;;;;;;1.38;84.07;99858.57;1770130;81;25728;-70
2023/01/04 01:54:25;;;;;;;91.42;47.80;;;;;;;1.41;84.60;99866.74;1739816;81;25779;-70
2023/01/04 01:56:55;;;;;;;102.17;46.88;;;;;;;1.43;84.58;99857.06;1739852;81;26320;-70
2023/01/04 01:59:22;;;;;;;95.90;45.70;;;;;;;1.36;84.26;99860.66;1716115;81;25741;-70
2023/01/04 02:01:48;;;;;;;88.25;40.98;;;;;;;1.33;84.34;99854.89;1740179;81;27502;-70
2023/01/04 02:04:15;;;;;;;78.67;36.85;;;;;;;1.27;84.28;99853.92;1765898;80;25849;-70
2023/01/04 02:06:48;;;;;;;84.47;38.33;;;;;;;1.25;84.42;99855.48;1714482;81;25680;-70
2023/01/04 02:09:16;;;;;;;72.08;34.95;;;;;;;1.26;84.32;99848.20;1770735;80;25586;-69
2023/01/04 02:11:42;;;;;;;80.12;35.83;;;;;;;1.25;84.25;99847.39;1714397;80;25647;-69
2023/01/04 02:14:27;;;;;;;79.80;35.95;;;;;;;1.27;84.50;99856.62;1724136;81;27361;-69
2023/01/04 02:17:08;;;;;;;88.12;38.55;;;;;;;1.31;84.31;99855.12;1748508;81;25441;-69
2023/01/04 02:20:06;;;;;;;81.08;37.90;;;;;;;1.28;84.18;99844.76;1749042;81;25533;-72
2023/01/04 02:22:43;;;;;;;83.60;39.13;;;;;;;1.31;84.59;99838.91;1772311;81;27580;-72
2023/01/04 02:25:18;;;;;;;88.78;40.48;;;;;;;1.28;84.05;99837.17;1771563;80;25583;-70
2023/01/04 02:28:04;;;;;;;77.05;35.98;;;;;;;1.17;83.97;99843.61;1772894;80;27426;-72
2023/01/04 02:31:05;;;;;;;78.60;37.28;;;;;;;1.06;83.95;99842.45;1748728;81;25777;-71
2023/01/04 02:34:11;;;;;;;88.25;36.40;;;;;;;1.01;84.17;99836.91;1774845;80;25464;-71
2023/01/04 02:36:46;;;;;;;79.80;36.55;;;;;;;0.96;84.56;99830.83;1748506;81;25877;-71
2023/01/04 02:39:21;;;;;;;72.60;33.20;;;;;;;0.95;84.86;99831.85;1748140;81;25667;-72
2023/01/04 02:44:51;;;;;;;51.55;26.15;;;;;;;0.92;84.64;99825.55;1738347;81;27572;-71
2023/01/04 02:45:03;;;;;;;52.67;24.10;;;;;;;0.97;85.57;99829.77;1768681;81;25565;-71
2023/01/04 02:50:38;;;;;;;56.13;24.15;;;;;;;1.10;86.15;99816.66;1752340;81;25629;-72
2023/01/04 02:53:28;;;;;;;54.63;24.60;;;;;;;1.13;86.63;99810.01;1774615;80;25460;-71
2023/01/04 02:56:34;;;;;;;52.23;25.48;;;;;;;1.20;86.78;99807.23;1772537;80;27432;-72
2023/01/04 02:59:16;;;;;;;51.08;24.65;;;;;;;1.26;86.54;99802.28;1770033;80;25607;-72
2023/01/04 03:08:14;;;;;;;41.63;21.57;;;;;;;1.14;86.20;99796.80;1733606;82;25639;-72
2023/01/04 03:11:00;;;;;;;67.92;34.90;;;;;;;1.11;87.15;99791.84;1700416;82;27945;-72
2023/01/04 03:13:40;;;;;;;49.15;22.13;;;;;;;1.13;88.29;99785.71;1724383;82;26830;-72
2023/01/04 03:16:12;;;;;;;40.23;18.50;;;;;;;1.17;89.40;99780.16;1718805;83;25427;-72
2023/01/04 03:18:46;;;;;;;52.60;22.62;;;;;;;1.25;89.70;99781.22;1694688;83;26833;-73
2023/01/04 03:21:16;;;;;;;48.70;19.95;;;;;;;1.34;89.22;99775.52;1695125;83;25711;-72
2023/01/04 03:35:37;;;;;;;30.65;15.90;;;;;;;1.65;90.29;99752.61;1680481;85;25830;-75
2023/01/04 03:50:21;;;;;;;28.32;13.43;;;;;;;1.77;89.44;99741.33;1725983;83;25720;-75
2023/01/04 03:52:50;;;;;;;36.95;18.67;;;;;;;1.74;89.56;99740.44;1699557;83;28106;-75
2023/01/04 03:55:18;;;;;;;37.67;18.00;;;;;;;1.76;89.30;99745.09;1676096;83;25624;-75
2023/01/04 03:57:45;;;;;;;36.50;19.23;;;;;;;1.75;89.05;99743.42;1675927;83;25698;-74
2023/01/04 04:00:15;;;;;;;36.15;17.90;;;;;;;1.77;88.95;99742.68;1699594;83;25729;-75
2023/01/04 04:02:45;;;;;;;36.10;17.10;;;;;;;1.78;88.56;99745.67;1699427;83;25528;-73
2023/01/04 04:10:49;;;;;;;34.50;15.40;;;;;;;1.79;87.85;99732.48;1703299;83;25642;-74
2023/01/04 04:13:15;;;;;;;30.65;15.08;;;;;;;1.82;87.71;99733.38;1699207;83;25679;-75
2023/01/04 04:15:42;;;;;;;27.67;15.32;;;;;;;1.77;87.51;99726.98;1699329;83;25400;-75
2023/01/04 04:18:08;;;;;;;24.65;13.50;;;;;;;1.76;87.88;99728.88;1675954;83;27208;-75
2023/01/04 04:20:35;;;;;;;27.60;14.07;;;;;;;1.73;88.23;99731.49;1699374;83;25526;-74
2023/01/04 04:23:01;;;;;;;25.62;11.85;;;;;;;1.72;88.03;99733.07;1699708;83;25587;-75
2023/01/04 04:25:28;;;;;;;23.32;11.57;;;;;;;1.68;88.61;99730.02;1699399;83;26077;-75
2023/01/04 04:27:54;;;;;;;25.25;11.05;;;;;;;1.71;88.64;99734.13;1702855;82;25492;-75
2023/01/04 04:30:20;;;;;;;21.82;11.95;;;;;;;1.72;88.43;99729.02;1740423;81;27562;-75
2023/01/04 04:32:46;;;;;;;26.70;13.05;;;;;;;1.73;88.01;99722.58;1715570;82;25605;-75
2023/01/04 04:35:12;;;;;;;27.00;13.83;;;;;;;1.77;87.76;99717.52;1691971;82;25725;-74
2023/01/04 04:37:39;;;;;;;23.40;13.08;;;;;;;1.79;87.61;99713.56;1715696;82;25475;-74
2023/01/04 04:41:36;;;;;;;27.70;13.83;;;;;;;1.81;87.60;99703.87;1715865;82;25483;-75
2023/01/04 04:42:35;;;;;;;26.70;14.78;;;;;;;1.82;87.53;99704.99;1712257;82;26026;-75
2023/01/04 04:45:01;;;;;;;22.20;13.70;;;;;;;1.84;87.32;99693.95;1715703;82;25709;-74
2023/01/04 04:47:27;;;;;;;25.32;12.10;;;;;;;1.84;87.19;99698.81;1691731;82;25623;-72
2023/01/04 04:49:53;;;;;;;17.23;10.53;;;;;;;1.81;87.08;99695.22;1691449;82;25759;-74
2023/01/04 04:52:19;;;;;;;21.48;11.05;;;;;;;1.79;87.04;99689.75;1681778;82;25709;-72
2023/01/04 04:54:45;;;;;;;26.02;13.13;;;;;;;1.75;86.94;99689.37;1684632;82;27386;-74
2023/01/04 04:57:11;;;;;;;19.32;10.85;;;;;;;1.72;86.95;99683.08;1691187;82;27215;-74
2023/01/04 04:59:38;;;;;;;22.35;10.35;;;;;;;1.71;86.95;99695.78;1714608;82;26508;-73
2023/01/04 05:02:04;;;;;;;19.50;10.63;;;;;;;1.68;87.01;99684.59;1691110;82;26481;-74
2023/01/04 05:04:30;;;;;;;23.67;11.80;;;;;;;1.69;86.98;99683.53;1715435;82;25512;-74
2023/01/04 05:06:56;;;;;;;19.07;10.98;;;;;;;1.68;86.86;99675.97;1714373;82;27683;-74
2023/01/04 05:09:23;;;;;;;25.80;14.90;;;;;;;1.65;86.83;99680.48;1691836;82;25784;-74
2023/01/04 05:14:33;;;;;;;19.48;10.15;;;;;;;1.66;86.52;99674.02;1698482;82;25749;-75
2023/01/04 05:16:59;;;;;;;19.30;8.90;;;;;;;1.62;86.51;99668.23;1719720;82;25703;-74
2023/01/04 05:19:26;;;;;;;21.65;11.35;;;;;;;1.57;86.67;99661.88;1744505;82;27421;-71
2023/01/04 05:21:52;;;;;;;24.70;12.00;;;;;;;1.54;86.54;99659.63;1744804;82;25799;-73
2023/01/04 05:24:18;;;;;;;20.62;10.18;;;;;;;1.47;86.61;99657.84;1720110;82;25488;-74
2023/01/04 05:26:44;;;;;;;20.77;11.12;;;;;;;1.46;86.70;99662.12;1691606;82;25843;-74
2023/01/04 05:30:49;;;;;;;25.55;12.58;;;;;;;1.44;86.55;99652.89;1690491;82;25674;-74
2023/01/04 05:31:39;;;;;;;21.85;12.60;;;;;;;1.42;86.65;99653.67;1715863;82;25804;-74
2023/01/04 05:34:05;;;;;;;21.60;11.75;;;;;;;1.42;86.66;99655.53;1691686;82;25692;-74
2023/01/04 05:36:31;;;;;;;18.70;8.73;;;;;;;1.41;86.54;99654.70;1690567;82;25638;-75
2023/01/04 05:38:57;;;;;;;24.77;12.43;;;;;;;1.41;86.62;99655.25;1720221;82;25703;-74
2023/01/04 05:44:17;;;;;;;23.30;11.15;;;;;;;1.38;86.55;99655.16;1699721;82;27541;-74
2023/01/04 05:46:43;;;;;;;22.65;10.98;;;;;;;1.37;86.44;99653.00;1715535;82;25796;-73
2023/01/04 05:49:09;;;;;;;25.00;13.10;;;;;;;1.33;86.50;99636.13;1715886;82;25653;-73
2023/01/04 05:51:35;;;;;;;23.55;11.45;;;;;;;1.31;86.45;99640.41;1692320;82;26252;-73
2023/01/04 05:54:02;;;;;;;24.45;11.83;;;;;;;1.29;86.60;99635.75;1744828;82;25636;-73
2023/01/04 05:56:28;;;;;;;23.32;12.07;;;;;;;1.28;86.63;99640.02;1715521;82;27250;-73
2023/01/04 05:58:54;;;;;;;22.48;13.03;;;;;;;1.26;86.45;99636.20;1715852;82;25629;-74
2023/01/04 06:01:20;;;;;;;23.83;11.00;;;;;;;1.28;86.66;99638.67;1692062;82;25505;-74
2023/01/04 06:03:46;;;;;;;27.75;11.53;;;;;;;1.30;86.43;99641.98;1719873;82;27515;-74
2023/01/04 06:06:12;;;;;;;23.57;10.88;;;;;;;1.30;86.32;99640.12;1692106;82;25696;-74
2023/01/04 06:08:39;;;;;;;26.52;11.95;;;;;;;1.32;86.22;99637.19;1744865;82;27414;-73
2023/01/04 06:11:05;;;;;;;22.65;11.73;;;;;;;1.30;86.14;99649.57;1744633;81;25451;-73
2023/01/04 06:13:31;;;;;;;27.15;12.07;;;;;;;1.28;86.07;99650.31;1720379;82;25665;-73
2023/01/04 06:15:57;;;;;;;25.68;13.03;;;;;;;1.26;86.09;99644.30;1696209;82;25963;-73
2023/01/04 06:18:23;;;;;;;35.88;19.42;;;;;;;1.26;86.00;99647.00;1720581;82;25654;-74
2023/01/04 06:20:50;;;;;;;30.35;15.38;;;;;;;1.24;85.96;99640.48;1690780;82;27411;-73
2023/01/04 06:23:16;;;;;;;28.10;14.43;;;;;;;1.22;85.92;99639.91;1690583;82;25758;-74
2023/01/04 06:25:43;;;;;;;27.95;13.70;;;;;;;1.21;85.97;99640.94;1695902;82;25540;-74
2023/01/04 06:28:09;;;;;;;22.65;12.25;;;;;;;1.22;85.81;99640.42;1689395;82;25575;-73
2023/01/04 06:30:35;;;;;;;26.20;13.15;;;;;;;1.21;85.84;99636.88;1675563;83;25591;-73
2023/01/04 06:33:01;;;;;;;26.52;12.50;;;;;;;1.22;85.84;99632.31;1675923;83;27400;-74
2023/01/04 06:35:27;;;;;;;17.92;8.78;;;;;;;1.17;85.76;99633.52;1699514;83;25755;-73
2023/01/04 06:37:53;;;;;;;20.15;11.10;;;;;;;1.11;86.13;99635.25;1726454;82;25506;-74
2023/01/04 06:40:19;;;;;;;16.07;9.25;;;;;;;1.09;86.17;99635.48;1699168;83;25472;-73
2023/01/04 06:42:46;;;;;;;21.57;12.28;;;;;;;1.03;86.48;99630.98;1678779;83;25790;-74
2023/01/04 06:45:14;;;;;;;24.05;13.18;;;;;;;1.02;86.52;99637.44;1676053;83;27172;-73
2023/01/04 06:47:41;;;;;;;31.05;14.28;;;;;;;1.03;86.42;99639.08;1696703;83;25707;-73
2023/01/04 06:50:08;;;;;;;31.80;13.85;;;;;;;1.03;86.41;99632.33;1699736;83;25599;-73
2023/01/04 06:52:35;;;;;;;31.07;13.95;;;;;;;1.03;86.60;99628.83;1699470;83;26479;-73
2023/01/04 06:55:01;;;;;;;37.05;15.63;;;;;;;1.04;86.45;99624.55;1675093;83;25444;-73
2023/01/04 06:57:27;;;;;;;33.92;13.30;;;;;;;1.06;86.28;99622.98;1699456;83;27348;-74
2023/01/04 06:59:53;;;;;;;29.30;13.03;;;;;;;1.07;86.29;99624.08;1676437;83;25424;-73
2023/01/04 07:02:19;;;;;;;30.60;13.48;;;;;;;1.09;86.23;99613.88;1699321;83;25523;-69
2023/01/04 07:04:46;;;;;;;25.35;13.10;;;;;;;1.09;86.21;99616.58;1652431;83;25630;-69
2023/01/04 07:07:12;;;;;;;49.15;13.20;;;;;;;1.10;86.27;99608.77;1699857;83;25669;-73
2023/01/04 07:09:38;;;;;;;25.08;13.00;;;;;;;1.08;86.27;99609.55;1675923;83;29189;-69
2023/01/04 07:12:05;;;;;;;23.27;11.43;;;;;;;1.03;86.30;99595.89;1652212;83;25453;-72
2023/01/04 07:14:31;;;;;;;35.60;18.05;;;;;;;0.99;86.48;99598.23;1699555;83;25540;-70
2023/01/04 07:16:58;;;;;;;22.58;12.50;;;;;;;1.00;86.52;99594.99;1699287;83;25634;-69
2023/01/04 07:19:24;;;;;;;26.52;13.95;;;;;;;0.99;86.55;99590.66;1698230;83;25484;-70
2023/01/04 07:21:50;;;;;;;28.25;11.48;;;;;;;1.00;86.56;99591.78;1698762;83;28047;-73
2023/01/04 07:24:17;;;;;;;22.35;10.58;;;;;;;1.02;86.72;99592.06;1699526;83;25935;-71
2023/01/04 07:26:43;;;;;;;21.45;11.35;;;;;;;1.02;86.71;99592.91;1674863;83;25690;-70
2023/01/04 07:29:13;;;;;;;25.48;11.93;;;;;;;1.03;86.87;99604.53;1706148;82;27487;-69
2023/01/04 07:31:40;;;;;;;14.40;8.20;;;;;;;1.07;86.97;99613.82;1719968;82;25668;-71
2023/01/04 07:34:06;;;;;;;25.15;13.53;;;;;;;1.07;86.83;99611.92;1695207;82;27785;-69
2023/01/04 07:36:33;;;;;;;26.17;13.25;;;;;;;1.11;86.64;99613.66;1695157;82;25893;-73
2023/01/04 07:39:00;;;;;;;36.68;16.30;;;;;;;1.19;86.58;99614.70;1696131;82;25711;-74
2023/01/04 07:41:26;;;;;;;28.87;13.88;;;;;;;1.29;86.27;99615.49;1719785;82;27295;-74
2023/01/04 07:43:53;;;;;;;26.90;13.15;;;;;;;1.38;85.96;99622.23;1696303;82;25487;-73
2023/01/04 07:46:20;;;;;;;29.50;14.23;;;;;;;1.47;85.67;99620.02;1696022;82;27512;-74
2023/01/04 07:48:47;;;;;;;24.87;11.93;;;;;;;1.55;85.47;99611.32;1718543;82;25753;-74
2023/01/04 07:51:13;;;;;;;20.37;10.78;;;;;;;1.61;85.33;99610.37;1720460;82;25687;-74
2023/01/04 07:53:39;;;;;;;21.70;10.30;;;;;;;1.68;85.11;99611.64;1672017;82;26111;-72
2023/01/04 07:56:07;;;;;;;18.10;9.03;;;;;;;1.69;84.82;99605.16;1672124;82;25718;-74
2023/01/04 07:58:33;;;;;;;16.20;8.43;;;;;;;1.73;84.70;99600.42;1695206;82;27445;-75
2023/01/04 08:01:12;;;;;;;17.40;9.50;;;;;;;1.73;84.45;99607.17;1720142;82;25913;-73
2023/01/04 08:03:39;;;;;;;14.63;7.28;;;;;;;1.73;84.55;99601.77;1696723;82;25642;-74
2023/01/04 08:06:09;;;;;;;20.95;10.30;;;;;;;1.72;84.69;99597.95;1719810;82;25742;-73
2023/01/04 08:08:36;;;;;;;22.50;10.58;;;;;;;1.74;84.81;99601.25;1745156;81;25712;-74
2023/01/04 08:11:10;;;;;;;14.00;7.95;;;;;;;1.77;84.78;99593.20;1673018;82;27086;-74
2023/01/04 08:13:36;;;;;;;17.92;8.98;;;;;;;1.77;84.74;99594.55;1720076;82;25682;-73
2023/01/04 08:16:03;;;;;;;18.35;9.23;;;;;;;1.82;84.80;99597.39;1720263;82;25795;-74
2023/01/04 08:18:29;;;;;;;18.17;9.55;;;;;;;1.91;84.74;99587.06;1696180;82;25698;-74
2023/01/04 08:21:07;;;;;;;20.48;10.23;;;;;;;2.05;84.59;99590.37;1696544;82;25453;-73
2023/01/04 08:23:36;;;;;;;18.90;9.60;;;;;;;2.18;83.90;99584.73;1694726;82;27274;-74
2023/01/04 08:26:11;;;;;;;12.07;6.37;;;;;;;2.29;83.51;99587.66;1720654;82;25728;-74
2023/01/04 08:28:37;;;;;;;17.87;9.08;;;;;;;2.40;83.02;99581.95;1696502;82;25686;-74
2023/01/04 08:31:08;;;;;;;15.28;8.20;;;;;;;2.49;83.22;99581.89;1718790;82;25865;-72
2023/01/04 08:33:36;;;;;;;;;;;;;;;2.54;82.64;99580.66;1720333;82;25678;-66
2023/01/04 08:36:22;;;;;;;14.50;7.87;;;;;;;2.58;82.51;99579.12;1718154;82;27496;-74
2023/01/04 08:38:51;;;;;;;15.65;8.60;;;;;;;2.66;82.62;99583.86;1743148;82;26012;-74
2023/01/04 08:41:18;;;;;;;21.27;10.90;;;;;;;2.79;82.45;99583.59;1718903;82;25702;-75
2023/01/04 08:43:46;;;;;;;22.70;11.57;;;;;;;2.93;82.18;99582.80;1717014;82;25435;-74
2023/01/04 08:46:14;;;;;;;24.02;12.95;;;;;;;3.08;82.21;99581.48;1694730;82;25608;-75
2023/01/04 08:48:41;;;;;;;22.15;11.63;;;;;;;3.25;81.87;99572.02;1739561;82;27649;-76
2023/01/04 08:51:14;;;;;;;27.80;14.43;;;;;;;3.42;80.99;99570.71;1718117;82;25442;-76
2023/01/04 08:53:41;;;;;;;22.35;11.25;;;;;;;3.53;80.84;99577.14;1739590;82;25653;-76
2023/01/04 08:56:09;;;;;;;32.17;15.58;;;;;;;3.55;80.02;99577.73;1717049;82;25617;-76
2023/01/04 08:58:37;;;;;;;25.62;11.80;;;;;;;3.60;80.25;99577.80;1670537;82;25654;-77
2023/01/04 09:01:08;;;;;;;30.15;14.38;;;;;;;3.59;79.82;99573.98;1718540;82;26727;-79
2023/01/04 09:03:36;;;;;;;27.27;13.30;;;;;;;3.53;79.94;99586.62;1718878;82;26100;-79
2023/01/04 09:06:10;;;;;;;35.55;16.85;;;;;;;3.48;79.73;99579.75;1718439;82;25709;-80
2023/01/04 09:08:39;;;;;;;32.28;15.78;;;;;;;3.51;80.66;99583.33;1718542;82;27085;-78
2023/01/04 09:11:09;;;;;;;33.73;16.35;;;;;;;3.55;80.02;99573.66;1718478;82;25455;-80
2023/01/04 09:13:36;;;;;;;32.07;16.60;;;;;;;3.54;80.05;99569.84;1718873;82;27355;-80
2023/01/04 09:16:06;;;;;;;23.73;12.28;;;;;;;3.47;79.31;99569.45;1670442;82;25786;-80
2023/01/04 09:18:33;;;;;;;24.20;12.78;;;;;;;3.33;79.08;99569.45;1695418;82;25794;-79
2023/01/04 09:21:05;;;;;;;18.90;9.98;;;;;;;3.30;79.95;99560.45;1718345;82;25600;-75
2023/01/04 09:23:32;;;;;;;24.67;13.83;;;;;;;3.33;79.48;99563.52;1718617;82;25532;-80
2023/01/04 09:26:05;;;;;;;22.95;10.80;;;;;;;3.31;79.66;99557.51;1718249;82;27132;-80
2023/01/04 09:28:31;;;;;;;24.87;11.60;;;;;;;3.25;79.29;99546.28;1718230;82;26027;-78
2023/01/04 09:30:57;;;;;;;26.57;12.30;;;;;;;3.17;79.44;99549.40;1716885;82;25685;-80
2023/01/04 09:33:24;;;;;;;26.20;13.32;;;;;;;3.16;79.67;99546.41;1718710;82;25653;-80
2023/01/04 09:35:50;;;;;;;16.35;8.83;;;;;;;3.18;79.81;99551.87;1718432;82;25765;-80
2023/01/04 09:38:16;;;;;;;27.00;12.05;;;;;;;3.35;79.58;99547.84;1670389;82;27327;-80
2023/01/04 09:41:06;;;;;;;31.33;14.05;;;;;;;3.47;78.85;99545.07;1739338;82;25427;-80
2023/01/04 09:43:46;;;;;;;38.78;16.30;;;;;;;3.49;78.61;99530.72;1702715;82;25432;-78
2023/01/04 09:46:17;;;;;;;24.80;11.78;;;;;;;3.56;78.83;99519.73;1718422;82;25724;-77
2023/01/04 09:48:45;;;;;;;23.85;11.88;;;;;;;3.55;78.66;99499.65;1737409;82;25657;-71
2023/01/04 09:51:16;;;;;;;29.30;14.40;;;;;;;3.50;78.82;99498.51;1718593;82;27637;-79
2023/01/04 09:53:46;;;;;;;48.63;20.72;;;;;;;3.50;78.92;99497.67;1718638;82;33131;-79
2023/01/04 09:56:29;;;;;;;44.60;20.37;;;;;;;3.46;79.13;99492.47;1739834;82;25656;-74
2023/01/04 09:58:57;;;;;;;64.87;31.00;;;;;;;3.45;79.32;99484.86;1739642;82;25629;-80
2023/01/04 10:01:28;;;;;;;33.73;16.40;;;;;;;3.66;80.04;99482.50;1718874;82;25431;-76
2023/01/04 10:04:06;;;;;;;29.10;14.43;;;;;;;4.03;79.72;99470.27;1727693;82;27535;-78
2023/01/04 10:06:34;;;;;;;30.43;14.43;;;;;;;4.43;79.10;99460.19;1739560;82;25986;-79
2023/01/04 10:09:08;;;;;;;32.55;15.10;;;;;;;4.86;77.48;99457.69;1739370;82;25689;-76
2023/01/04 10:11:45;;;;;;;32.08;16.40;;;;;;;5.14;76.81;99453.08;1739208;82;25661;-79
2023/01/04 10:14:43;;;;;;;34.43;17.50;;;;;;;5.48;76.38;99452.00;1739741;82;25554;-78
2023/01/04 10:17:30;;;;;;;35.95;15.25;;;;;;;5.90;75.74;99444.92;1739375;82;27451;-78
2023/01/04 10:20:21;;;;;;;27.15;14.03;;;;;;;6.15;73.60;99442.09;1717790;82;26035;-76
2023/01/04 10:23:18;;;;;;;35.48;17.32;;;;;;;6.42;73.21;99440.28;1739546;82;25750;-76
2023/01/04 10:26:08;;;;;;;33.73;17.23;;;;;;;6.65;73.15;99428.11;1739413;82;25700;-78
2023/01/04 10:29:06;;;;;;;35.68;17.60;;;;;;;6.90;71.88;99422.45;1718362;82;25620;-75
2023/01/04 10:31:59;;;;;;;33.98;17.05;;;;;;;7.11;71.66;99417.01;1739332;82;27448;-77
2023/01/04 10:34:38;;;;;;;31.42;15.80;;;;;;;7.34;70.58;99408.01;1673385;84;25802;-74
2023/01/04 10:37:23;;;;;;;28.98;17.32;;;;;;;7.77;70.51;99391.85;1676110;84;25790;-78
2023/01/04 10:39:53;;;;;;;42.03;19.37;;;;;;;7.90;69.29;99385.83;1673693;84;25687;-77
2023/01/04 10:42:31;;;;;;;30.32;16.45;;;;;;;8.01;69.03;99379.77;1652007;84;25734;-77
2023/01/04 10:45:14;;;;;;;25.82;14.40;;;;;;;8.13;69.63;99377.28;1673887;84;27345;-78
2023/01/04 10:48:13;;;;;;;23.42;14.58;;;;;;;8.38;69.62;99371.44;1697449;84;25771;-78
2023/01/04 10:50:58;;;;;;;26.97;15.18;;;;;;;8.50;68.67;99372.45;1697628;84;25731;-78
2023/01/04 10:53:47;;;;;;;21.17;12.78;;;;;;;8.62;68.57;99369.41;1651273;84;25718;-78
2023/01/04 10:56:40;;;;;;;22.25;12.90;;;;;;;8.73;68.08;99367.42;1697162;84;25820;-77
2023/01/04 10:59:28;;;;;;;17.40;11.12;;;;;;;8.82;68.44;99368.45;1697155;84;27429;-77
2023/01/04 11:02:05;;;;;;;22.07;12.18;;;;;;;8.83;67.76;99348.75;1646837;87;25712;-78
2023/01/04 11:04:46;;;;;;;24.02;13.30;;;;;;;8.93;67.54;99345.14;1624060;87;25785;-78
2023/01/04 11:07:19;;;;;;;18.35;11.57;;;;;;;9.03;68.07;99336.31;1624912;87;25878;-78
2023/01/04 11:10:06;;;;;;;21.57;13.35;;;;;;;8.99;65.90;99324.86;1637008;87;25527;-78
2023/01/04 11:12:33;;;;;;;21.85;11.25;;;;;;;8.94;67.70;99327.09;1655194;86;28684;-78
2023/01/04 11:14:59;;;;;;;21.33;10.55;;;;;;;8.81;66.48;99323.64;1656032;86;26199;-78
2023/01/04 11:17:26;;;;;;;14.83;8.30;;;;;;;8.68;66.97;99315.53;1633738;86;25567;-77
2023/01/04 11:19:53;;;;;;;19.25;11.28;;;;;;;8.48;66.92;99296.25;1655558;86;26657;-77
2023/01/04 11:22:24;;;;;;;22.80;11.38;;;;;;;8.51;68.49;99292.95;1621842;86;26710;-78
2023/01/04 11:24:53;;;;;;;;;;;;;;;8.55;67.77;99282.86;1658380;86;27434;-78
2023/01/04 11:27:24;;;;;;;13.58;8.20;;;;;;;8.63;67.21;99286.33;1655959;86;25486;-78
2023/01/04 11:30:03;;;;;;;21.17;9.15;;;;;;;8.71;67.17;99280.27;1632788;86;25763;-78
2023/01/04 11:33:01;;;;;;;13.78;7.53;;;;;;;8.66;66.09;99268.83;1651957;86;26074;-78
2023/01/04 11:35:44;;;;;;;11.48;7.17;;;;;;;8.60;65.81;99264.50;1629440;86;25905;-68
2023/01/04 11:38:21;;;;;;;7.72;4.83;;;;;;;8.48;65.67;99253.91;1708538;82;27492;-70
2023/01/04 11:41:06;;;;;;;9.85;5.40;;;;;;;8.35;65.55;99249.90;1696038;82;25714;-74
2023/01/04 11:43:39;;;;;;;10.13;5.58;;;;;;;8.10;65.72;99241.34;1693812;82;25843;-68
2023/01/04 11:46:19;;;;;;;10.30;5.80;;;;;;;7.89;66.72;99240.91;1745252;82;25685;-75
2023/01/04 11:48:47;;;;;;;11.85;7.35;;;;;;;7.73;67.24;99233.36;1712166;82;25605;-70
2023/01/04 11:51:27;;;;;;;18.65;9.05;;;;;;;7.54;67.85;99246.80;1681655;82;29627;-71
2023/01/04 11:53:58;;;;;;;9.60;6.53;;;;;;;7.44;68.10;99231.84;1705525;82;30099;-69
2023/01/04 11:56:26;;;;;;;;;;;;;;;7.37;68.68;99227.50;1715805;82;25796;-74
2023/01/04 11:59:15;;;;;;;10.88;6.35;;;;;;;7.33;69.08;99210.08;1717255;82;25976;-76
2023/01/04 12:01:52;;;;;;;10.32;6.08;;;;;;;7.33;69.27;99197.80;1692266;82;25387;-76
2023/01/04 12:04:21;;;;;;;11.48;6.58;;;;;;;7.43;69.02;99207.04;1715437;82;25892;-77
2023/01/04 12:06:56;;;;;;;11.93;6.40;;;;;;;7.53;69.47;99217.36;1715234;82;25665;-68
2023/01/04 12:09:22;;;;;;;12.25;7.17;;;;;;;7.69;68.81;99217.30;1715409;82;25527;-77
2023/01/04 12:11:53;;;;;;;14.75;7.62;;;;;;;7.84;68.60;99220.48;1687895;82;25732;-77
2023/01/04 12:14:31;;;;;;;;;;;;;;;7.96;67.89;99207.86;1687045;82;25680;-73
2023/01/04 12:17:17;;;;;;;14.35;6.58;;;;;;;7.97;67.63;99198.56;1735030;82;27042;-76
2023/01/04 12:19:46;;;;;;;11.68;6.22;;;;;;;7.94;67.09;99188.20;1762157;80;25932;-75
2023/01/04 12:22:20;;;;;;;12.63;6.35;;;;;;;7.95;66.92;99186.30;1742077;81;25796;-76
2023/01/04 12:24:47;;;;;;;9.70;6.40;;;;;;;7.93;67.63;99198.05;1741509;81;26620;-76
2023/01/04 12:27:14;;;;;;;11.20;6.28;;;;;;;7.88;67.84;99196.16;1717072;81;25698;-76
2023/01/04 12:29:46;;;;;;;14.15;7.00;;;;;;;7.83;68.12;99184.72;1740462;81;29578;-74
2023/01/04 12:32:17;;;;;;;12.40;6.12;;;;;;;7.78;68.25;99183.41;1765960;80;25752;-75
2023/01/04 12:34:48;;;;;;;9.45;5.33;;;;;;;7.71;67.82;99182.91;1747898;81;25691;-76